sensor_id;sensor_type;location;lat;lon;timestamp;pressure;altitude;pressure_sealevel;temperature;humidity
11912;BME280;6016;41.928;25.556;2023-04-30T00:01:28;98806.09;;;15.07;62.35
11912;BME280;6016;41.928;25.556;2023-04-30T00:03:54;98808.22;;;15.12;62.17
11912;BME280;6016;41.928;25.556;2023-04-30T00:06:21;98802.25;;;15.10;62.59
11912;BME280;6016;41.928;25.556;2023-04-30T00:08:48;98807.72;;;15.08;62.93
11912;BME280;6016;41.928;25.556;2023-04-30T00:11:15;98746.88;;;14.67;62.68
11912;BME280;6016;41.928;25.556;2023-04-30T00:13:41;98801.66;;;14.99;62.83
11912;BME280;6016;41.928;25.556;2023-04-30T00:16:08;98801.50;;;15.01;62.76
11912;BME280;6016;41.928;25.556;2023-04-30T00:18:37;98791.63;;;14.86;62.63
11912;BME280;6016;41.928;25.556;2023-04-30T00:21:04;98740.97;;;14.56;61.19
11912;BME280;6016;41.928;25.556;2023-04-30T00:23:31;98792.06;;;14.90;61.36
11912;BME280;6016;41.928;25.556;2023-04-30T00:25:57;98800.53;;;14.94;61.32
11912;BME280;6016;41.928;25.556;2023-04-30T00:28:24;98800.53;;;14.94;61.49
11912;BME280;6016;41.928;25.556;2023-04-30T00:30:51;98805.34;;;14.90;61.64
11912;BME280;6016;41.928;25.556;2023-04-30T00:33:18;98800.03;;;14.90;61.67
11912;BME280;6016;41.928;25.556;2023-04-30T00:35:46;98809.38;;;14.86;61.70
11912;BME280;6016;41.928;25.556;2023-04-30T00:38:13;98798.09;;;14.84;61.25
11912;BME280;6016;41.928;25.556;2023-04-30T00:40:40;98803.78;;;14.81;61.63
11912;BME280;6016;41.928;25.556;2023-04-30T00:43:07;98798.63;;;14.79;62.28
11912;BME280;6016;41.928;25.556;2023-04-30T00:45:34;98803.28;;;14.77;62.76
11912;BME280;6016;41.928;25.556;2023-04-30T00:48:01;98809.72;;;14.83;62.00
11912;BME280;6016;41.928;25.556;2023-04-30T00:50:28;98807.59;;;14.78;62.74
11912;BME280;6016;41.928;25.556;2023-04-30T00:52:56;98786.72;;;14.67;61.82
11912;BME280;6016;41.928;25.556;2023-04-30T00:55:24;98791.00;;;14.68;61.55
11912;BME280;6016;41.928;25.556;2023-04-30T00:57:51;98801.78;;;14.74;62.34
11912;BME280;6016;41.928;25.556;2023-04-30T01:00:18;98804.72;;;14.48;64.27
11912;BME280;6016;41.928;25.556;2023-04-30T01:02:45;98795.38;;;14.60;62.92
11912;BME280;6016;41.928;25.556;2023-04-30T01:05:12;98790.75;;;14.54;63.18
11912;BME280;6016;41.928;25.556;2023-04-30T01:07:39;98794.03;;;14.65;62.88
11912;BME280;6016;41.928;25.556;2023-04-30T01:10:11;98721.56;;;14.24;62.94
11912;BME280;6016;41.928;25.556;2023-04-30T01:12:44;98779.47;;;14.60;63.62
11912;BME280;6016;41.928;25.556;2023-04-30T01:15:18;98771.03;;;14.48;63.36
11912;BME280;6016;41.928;25.556;2023-04-30T01:17:54;98789.41;;;14.58;63.30
11912;BME280;6016;41.928;25.556;2023-04-30T01:20:22;98793.25;;;14.56;63.51
11912;BME280;6016;41.928;25.556;2023-04-30T01:22:54;98792.06;;;14.58;63.79
11912;BME280;6016;41.928;25.556;2023-04-30T01:25:50;98790.63;;;14.47;64.00
11912;BME280;6016;41.928;25.556;2023-04-30T01:28:21;98785.97;;;14.49;63.72
11912;BME280;6016;41.928;25.556;2023-04-30T01:30:49;98782.50;;;14.49;64.16
11912;BME280;6016;41.928;25.556;2023-04-30T01:33:17;98785.16;;;14.49;63.92
11912;BME280;6016;41.928;25.556;2023-04-30T01:35:57;98729.91;;;14.13;64.34
11912;BME280;6016;41.928;25.556;2023-04-30T01:38:32;98784.47;;;14.47;64.32
11912;BME280;6016;41.928;25.556;2023-04-30T01:41:09;98786.25;;;14.15;65.76
11912;BME280;6016;41.928;25.556;2023-04-30T01:43:49;98750.41;;;13.79;65.80
11912;BME280;6016;41.928;25.556;2023-04-30T01:46:24;98793.72;;;14.19;65.17
11912;BME280;6016;41.928;25.556;2023-04-30T01:48:56;98735.81;;;13.83;65.01
11912;BME280;6016;41.928;25.556;2023-04-30T01:51:31;98792.19;;;14.25;65.28
11912;BME280;6016;41.928;25.556;2023-04-30T01:54:10;98791.16;;;14.34;65.33
11912;BME280;6016;41.928;25.556;2023-04-30T01:56:45;98795.50;;;14.35;65.77
11912;BME280;6016;41.928;25.556;2023-04-30T01:59:16;98752.66;;;13.99;66.05
11912;BME280;6016;41.928;25.556;2023-04-30T02:01:44;98795.38;;;14.20;66.02
11912;BME280;6016;41.928;25.556;2023-04-30T02:04:11;98787.78;;;14.09;66.67
11912;BME280;6016;41.928;25.556;2023-04-30T02:06:37;98788.25;;;14.13;66.02
11912;BME280;6016;41.928;25.556;2023-04-30T02:09:05;98775.50;;;14.16;66.73
11912;BME280;6016;41.928;25.556;2023-04-30T02:11:32;98772.56;;;13.86;66.76
11912;BME280;6016;41.928;25.556;2023-04-30T02:13:59;98763.63;;;13.96;67.11
11912;BME280;6016;41.928;25.556;2023-04-30T02:16:27;98780.13;;;14.14;67.34
11912;BME280;6016;41.928;25.556;2023-04-30T02:18:54;98781.63;;;14.17;67.22
11912;BME280;6016;41.928;25.556;2023-04-30T02:21:21;98777.16;;;14.09;67.08
11912;BME280;6016;41.928;25.556;2023-04-30T02:23:47;98729.72;;;13.74;66.27
11912;BME280;6016;41.928;25.556;2023-04-30T02:26:14;98777.50;;;14.06;66.63
11912;BME280;6016;41.928;25.556;2023-04-30T02:28:41;98626.00;;;13.04;66.90
11912;BME280;6016;41.928;25.556;2023-04-30T02:31:08;98777.38;;;13.91;68.08
11912;BME280;6016;41.928;25.556;2023-04-30T02:33:36;98778.38;;;13.98;67.89
11912;BME280;6016;41.928;25.556;2023-04-30T02:36:03;98786.31;;;13.98;67.63
11912;BME280;6016;41.928;25.556;2023-04-30T02:38:30;98747.06;;;13.77;67.46
11912;BME280;6016;41.928;25.556;2023-04-30T02:40:57;98724.75;;;13.63;67.48
11912;BME280;6016;41.928;25.556;2023-04-30T02:43:23;98786.94;;;14.09;66.93
11912;BME280;6016;41.928;25.556;2023-04-30T02:45:50;98771.78;;;13.86;67.70
11912;BME280;6016;41.928;25.556;2023-04-30T02:48:17;98789.53;;;13.69;68.20
11912;BME280;6016;41.928;25.556;2023-04-30T02:50:45;98779.22;;;13.74;67.49
11912;BME280;6016;41.928;25.556;2023-04-30T02:53:12;98793.63;;;13.88;67.05
11912;BME280;6016;41.928;25.556;2023-04-30T02:55:39;98771.47;;;13.72;67.51
11912;BME280;6016;41.928;25.556;2023-04-30T02:58:05;98745.31;;;13.44;68.20
11912;BME280;6016;41.928;25.556;2023-04-30T03:00:32;98787.50;;;13.87;67.59
11912;BME280;6016;41.928;25.556;2023-04-30T03:02:59;98787.63;;;13.94;67.92
11912;BME280;6016;41.928;25.556;2023-04-30T03:05:26;98784.34;;;13.92;67.45
11912;BME280;6016;41.928;25.556;2023-04-30T03:07:54;98792.63;;;13.89;66.51
11912;BME280;6016;41.928;25.556;2023-04-30T03:10:21;98792.13;;;13.93;66.59
11912;BME280;6016;41.928;25.556;2023-04-30T03:12:48;98792.94;;;13.94;67.09
11912;BME280;6016;41.928;25.556;2023-04-30T03:15:15;98773.56;;;13.85;66.30
11912;BME280;6016;41.928;25.556;2023-04-30T03:17:41;98784.97;;;13.94;65.83
11912;BME280;6016;41.928;25.556;2023-04-30T03:20:09;98782.34;;;13.94;66.21
11912;BME280;6016;41.928;25.556;2023-04-30T03:22:37;98788.13;;;13.89;65.58
11912;BME280;6016;41.928;25.556;2023-04-30T03:25:06;98790.47;;;13.84;65.14
11912;BME280;6016;41.928;25.556;2023-04-30T03:27:32;98743.16;;;13.48;64.45
11912;BME280;6016;41.928;25.556;2023-04-30T03:29:59;98796.94;;;13.82;64.31
11912;BME280;6016;41.928;25.556;2023-04-30T03:32:26;98796.94;;;13.82;65.30
11912;BME280;6016;41.928;25.556;2023-04-30T03:34:53;98800.09;;;13.85;64.96
11912;BME280;6016;41.928;25.556;2023-04-30T03:37:20;98786.19;;;13.75;64.60
11912;BME280;6016;41.928;25.556;2023-04-30T03:39:47;98800.09;;;13.85;64.88
11912;BME280;6016;41.928;25.556;2023-04-30T03:42:16;98806.22;;;13.86;65.60
11912;BME280;6016;41.928;25.556;2023-04-30T03:44:42;98805.03;;;13.88;66.09
11912;BME280;6016;41.928;25.556;2023-04-30T03:47:09;98813.34;;;13.93;66.42
11912;BME280;6016;41.928;25.556;2023-04-30T03:49:36;98740.31;;;13.33;64.92
11912;BME280;6016;41.928;25.556;2023-04-30T03:52:03;98812.53;;;13.68;65.10
11912;BME280;6016;41.928;25.556;2023-04-30T03:54:31;98815.69;;;13.72;66.05
11912;BME280;6016;41.928;25.556;2023-04-30T03:56:58;98822.28;;;13.76;65.61
11912;BME280;6016;41.928;25.556;2023-04-30T03:59:29;98706.06;;;12.98;66.09
11912;BME280;6016;41.928;25.556;2023-04-30T04:01:56;98824.63;;;13.79;65.86
11912;BME280;6016;41.928;25.556;2023-04-30T04:04:23;98805.09;;;13.72;65.26
11912;BME280;6016;41.928;25.556;2023-04-30T04:06:49;98829.25;;;13.85;65.59
11912;BME280;6016;41.928;25.556;2023-04-30T04:09:16;98821.16;;;13.87;65.93
11912;BME280;6016;41.928;25.556;2023-04-30T04:11:43;98798.78;;;13.81;66.41
11912;BME280;6016;41.928;25.556;2023-04-30T04:14:10;98821.94;;;13.96;66.56
11912;BME280;6016;41.928;25.556;2023-04-30T04:16:38;98810.03;;;13.91;66.11
11912;BME280;6016;41.928;25.556;2023-04-30T04:19:05;98828.06;;;13.96;65.96
11912;BME280;6016;41.928;25.556;2023-04-30T04:21:31;98824.59;;;13.87;65.60
11912;BME280;6016;41.928;25.556;2023-04-30T04:23:58;98842.66;;;14.00;66.51
11912;BME280;6016;41.928;25.556;2023-04-30T04:26:29;98839.97;;;14.09;67.10
11912;BME280;6016;41.928;25.556;2023-04-30T04:28:56;98847.78;;;14.18;67.00
11912;BME280;6016;41.928;25.556;2023-04-30T04:31:23;98846.81;;;13.95;68.49
11912;BME280;6016;41.928;25.556;2023-04-30T04:33:52;98870.84;;;13.68;68.72
11912;BME280;6016;41.928;25.556;2023-04-30T04:36:23;98861.41;;;13.57;69.46
11912;BME280;6016;41.928;25.556;2023-04-30T04:38:51;98845.31;;;13.92;69.40
11912;BME280;6016;41.928;25.556;2023-04-30T04:41:18;98831.75;;;13.78;67.92
11912;BME280;6016;41.928;25.556;2023-04-30T04:43:45;98855.88;;;14.17;67.70
11912;BME280;6016;41.928;25.556;2023-04-30T04:46:12;98858.84;;;14.30;67.52
11912;BME280;6016;41.928;25.556;2023-04-30T04:48:40;98853.81;;;14.44;66.56
11912;BME280;6016;41.928;25.556;2023-04-30T04:51:09;98855.97;;;14.40;66.69
11912;BME280;6016;41.928;25.556;2023-04-30T04:53:35;98828.66;;;14.31;67.21
11912;BME280;6016;41.928;25.556;2023-04-30T04:56:02;98855.63;;;14.52;66.41
11912;BME280;6016;41.928;25.556;2023-04-30T04:58:29;98851.94;;;14.61;66.38
11912;BME280;6016;41.928;25.556;2023-04-30T05:00:57;98859.03;;;14.69;66.27
11912;BME280;6016;41.928;25.556;2023-04-30T05:03:24;98860.41;;;14.73;65.67
11912;BME280;6016;41.928;25.556;2023-04-30T05:05:51;98876.13;;;14.74;66.03
11912;BME280;6016;41.928;25.556;2023-04-30T05:08:19;98862.88;;;14.74;65.83
11912;BME280;6016;41.928;25.556;2023-04-30T05:10:46;98862.69;;;14.68;66.10
11912;BME280;6016;41.928;25.556;2023-04-30T05:13:13;98856.75;;;14.74;65.78
11912;BME280;6016;41.928;25.556;2023-04-30T05:15:40;98844.00;;;14.53;66.69
11912;BME280;6016;41.928;25.556;2023-04-30T05:18:07;98833.94;;;14.40;66.78
11912;BME280;6016;41.928;25.556;2023-04-30T05:20:33;98849.44;;;14.59;66.65
11912;BME280;6016;41.928;25.556;2023-04-30T05:23:00;98870.81;;;14.66;67.47
11912;BME280;6016;41.928;25.556;2023-04-30T05:25:28;98872.00;;;14.72;67.05
11912;BME280;6016;41.928;25.556;2023-04-30T05:27:55;98865.13;;;14.86;66.55
11912;BME280;6016;41.928;25.556;2023-04-30T05:30:22;98868.56;;;14.95;66.71
11912;BME280;6016;41.928;25.556;2023-04-30T05:32:50;98871.03;;;15.04;66.65
11912;BME280;6016;41.928;25.556;2023-04-30T05:35:17;98808.94;;;14.66;65.64
11912;BME280;6016;41.928;25.556;2023-04-30T05:37:44;98867.50;;;15.12;66.01
11912;BME280;6016;41.928;25.556;2023-04-30T05:40:11;98875.06;;;15.24;66.15
11912;BME280;6016;41.928;25.556;2023-04-30T05:42:40;98874.34;;;15.30;65.81
11912;BME280;6016;41.928;25.556;2023-04-30T05:45:08;98876.50;;;15.35;65.10
11912;BME280;6016;41.928;25.556;2023-04-30T05:47:36;98872.59;;;15.45;65.26
11912;BME280;6016;41.928;25.556;2023-04-30T05:50:04;98857.13;;;15.26;64.03
11912;BME280;6016;41.928;25.556;2023-04-30T05:52:31;98871.13;;;15.43;64.53
11912;BME280;6016;41.928;25.556;2023-04-30T05:54:57;98882.81;;;15.57;64.18
11912;BME280;6016;41.928;25.556;2023-04-30T05:57:24;98878.78;;;15.61;64.17
11912;BME280;6016;41.928;25.556;2023-04-30T05:59:52;98873.13;;;15.64;63.01
11912;BME280;6016;41.928;25.556;2023-04-30T06:02:19;98873.81;;;15.58;63.31
11912;BME280;6016;41.928;25.556;2023-04-30T06:04:46;98879.50;;;15.55;63.29
11912;BME280;6016;41.928;25.556;2023-04-30T06:07:13;98881.31;;;15.54;62.88
11912;BME280;6016;41.928;25.556;2023-04-30T06:09:40;98882.00;;;15.56;64.03
11912;BME280;6016;41.928;25.556;2023-04-30T06:12:07;98887.53;;;15.70;63.12
11912;BME280;6016;41.928;25.556;2023-04-30T06:14:34;98886.00;;;15.75;63.90
11912;BME280;6016;41.928;25.556;2023-04-30T06:17:02;98718.16;;;14.70;63.32
11912;BME280;6016;41.928;25.556;2023-04-30T06:19:29;98856.66;;;15.69;63.02
11912;BME280;6016;41.928;25.556;2023-04-30T06:21:56;98884.06;;;15.93;63.81
11912;BME280;6016;41.928;25.556;2023-04-30T06:24:22;98889.19;;;15.94;61.50
11912;BME280;6016;41.928;25.556;2023-04-30T06:26:51;98804.78;;;15.26;61.48
11912;BME280;6016;41.928;25.556;2023-04-30T06:29:18;98885.53;;;15.72;63.55
11912;BME280;6016;41.928;25.556;2023-04-30T06:31:45;98720.72;;;14.87;63.08
11912;BME280;6016;41.928;25.556;2023-04-30T06:34:13;98879.66;;;16.00;64.01
11912;BME280;6016;41.928;25.556;2023-04-30T06:36:40;98788.38;;;15.46;62.55
11912;BME280;6016;41.928;25.556;2023-04-30T06:39:07;98884.38;;;16.13;62.24
11912;BME280;6016;41.928;25.556;2023-04-30T06:41:34;98638.06;;;14.67;63.39
11912;BME280;6016;41.928;25.556;2023-04-30T06:44:01;98680.00;;;14.71;62.67
11912;BME280;6016;41.928;25.556;2023-04-30T06:46:28;98882.63;;;16.20;62.14
11912;BME280;6016;41.928;25.556;2023-04-30T06:48:55;98792.25;;;15.73;63.82
11912;BME280;6016;41.928;25.556;2023-04-30T06:51:23;98845.00;;;16.08;63.41
11912;BME280;6016;41.928;25.556;2023-04-30T06:53:50;98807.50;;;15.80;62.85
11912;BME280;6016;41.928;25.556;2023-04-30T06:56:17;98891.44;;;16.36;59.98
11912;BME280;6016;41.928;25.556;2023-04-30T06:58:46;98857.31;;;16.24;60.73
11912;BME280;6016;41.928;25.556;2023-04-30T07:01:14;98891.75;;;16.41;59.74
11912;BME280;6016;41.928;25.556;2023-04-30T07:03:41;98795.63;;;15.91;57.87
11912;BME280;6016;41.928;25.556;2023-04-30T07:06:08;98887.41;;;16.55;58.87
11912;BME280;6016;41.928;25.556;2023-04-30T07:08:36;98857.66;;;16.21;56.53
11912;BME280;6016;41.928;25.556;2023-04-30T07:11:05;98880.25;;;16.25;57.02
11912;BME280;6016;41.928;25.556;2023-04-30T07:13:32;98894.03;;;16.59;57.42
11912;BME280;6016;41.928;25.556;2023-04-30T07:15:59;98887.41;;;16.70;58.66
11912;BME280;6016;41.928;25.556;2023-04-30T07:18:25;98882.56;;;16.73;56.56
11912;BME280;6016;41.928;25.556;2023-04-30T07:20:52;98882.25;;;16.83;57.29
11912;BME280;6016;41.928;25.556;2023-04-30T07:23:19;98872.53;;;16.76;56.33
11912;BME280;6016;41.928;25.556;2023-04-30T07:25:47;98878.47;;;16.93;55.36
11912;BME280;6016;41.928;25.556;2023-04-30T07:28:14;98885.41;;;17.02;55.35
11912;BME280;6016;41.928;25.556;2023-04-30T07:30:41;98777.81;;;16.36;55.78
11912;BME280;6016;41.928;25.556;2023-04-30T07:33:08;98880.00;;;17.17;56.63
11912;BME280;6016;41.928;25.556;2023-04-30T07:35:35;98888.06;;;17.24;53.83
11912;BME280;6016;41.928;25.556;2023-04-30T07:38:03;98853.56;;;17.15;52.04
11912;BME280;6016;41.928;25.556;2023-04-30T07:40:30;98879.28;;;17.23;53.44
11912;BME280;6016;41.928;25.556;2023-04-30T07:42:58;98878.81;;;17.20;54.31
11912;BME280;6016;41.928;25.556;2023-04-30T07:45:25;98879.34;;;17.30;52.17
11912;BME280;6016;41.928;25.556;2023-04-30T07:47:52;98885.53;;;17.37;53.49
11912;BME280;6016;41.928;25.556;2023-04-30T07:50:18;98888.28;;;17.44;53.95
11912;BME280;6016;41.928;25.556;2023-04-30T07:52:47;98881.25;;;17.58;54.29
11912;BME280;6016;41.928;25.556;2023-04-30T07:55:14;98853.78;;;17.57;54.19
11912;BME280;6016;41.928;25.556;2023-04-30T07:57:41;98809.56;;;17.70;52.28
11912;BME280;6016;41.928;25.556;2023-04-30T08:00:10;98880.63;;;18.35;53.92
11912;BME280;6016;41.928;25.556;2023-04-30T08:02:37;98754.53;;;17.69;52.50
11912;BME280;6016;41.928;25.556;2023-04-30T08:05:04;98881.84;;;18.67;51.77
11912;BME280;6016;41.928;25.556;2023-04-30T08:07:31;98374.94;;;15.65;51.02
11912;BME280;6016;41.928;25.556;2023-04-30T08:09:58;98850.66;;;18.75;50.65
11912;BME280;6016;41.928;25.556;2023-04-30T08:12:25;98873.53;;;18.91;50.94
11912;BME280;6016;41.928;25.556;2023-04-30T08:14:58;98868.66;;;19.01;51.63
11912;BME280;6016;41.928;25.556;2023-04-30T08:17:26;98879.97;;;19.03;51.01
11912;BME280;6016;41.928;25.556;2023-04-30T08:19:53;98799.19;;;18.52;49.64
11912;BME280;6016;41.928;25.556;2023-04-30T08:22:21;98858.13;;;18.93;49.82
11912;BME280;6016;41.928;25.556;2023-04-30T08:24:48;98845.91;;;18.77;47.92
11912;BME280;6016;41.928;25.556;2023-04-30T08:27:15;98828.47;;;18.88;49.82
11912;BME280;6016;41.928;25.556;2023-04-30T08:29:42;98835.50;;;18.95;48.75
11912;BME280;6016;41.928;25.556;2023-04-30T08:32:09;98863.31;;;19.08;49.79
11912;BME280;6016;41.928;25.556;2023-04-30T08:34:37;98863.38;;;19.21;47.80
11912;BME280;6016;41.928;25.556;2023-04-30T08:37:07;98864.03;;;19.44;48.46
11912;BME280;6016;41.928;25.556;2023-04-30T08:39:33;98881.13;;;19.43;46.40
11912;BME280;6016;41.928;25.556;2023-04-30T08:42:07;98857.66;;;19.72;46.00
11912;BME280;6016;41.928;25.556;2023-04-30T08:44:34;98634.97;;;18.41;45.46
11912;BME280;6016;41.928;25.556;2023-04-30T08:47:06;98847.56;;;19.87;45.57
11912;BME280;6016;41.928;25.556;2023-04-30T08:49:34;98822.66;;;19.87;44.97
11912;BME280;6016;41.928;25.556;2023-04-30T08:52:02;98858.50;;;20.13;45.49
11912;BME280;6016;41.928;25.556;2023-04-30T08:54:30;98834.00;;;20.09;45.35
11912;BME280;6016;41.928;25.556;2023-04-30T08:56:57;98827.19;;;20.13;45.41
11912;BME280;6016;41.928;25.556;2023-04-30T08:59:24;98847.50;;;20.41;45.38
11912;BME280;6016;41.928;25.556;2023-04-30T09:01:50;98847.09;;;20.51;42.93
11912;BME280;6016;41.928;25.556;2023-04-30T09:04:17;98855.31;;;20.49;42.76
11912;BME280;6016;41.928;25.556;2023-04-30T09:06:44;98855.31;;;20.56;43.00
11912;BME280;6016;41.928;25.556;2023-04-30T09:09:13;98849.31;;;20.61;45.00
11912;BME280;6016;41.928;25.556;2023-04-30T09:11:40;98854.66;;;20.67;43.02
11912;BME280;6016;41.928;25.556;2023-04-30T09:14:07;98831.16;;;20.63;42.18
11912;BME280;6016;41.928;25.556;2023-04-30T09:16:45;98836.06;;;20.73;42.43
11912;BME280;6016;41.928;25.556;2023-04-30T09:19:22;98844.41;;;21.03;43.78
11912;BME280;6016;41.928;25.556;2023-04-30T09:21:49;98815.25;;;20.82;42.29
11912;BME280;6016;41.928;25.556;2023-04-30T09:24:18;98840.66;;;21.11;42.32
11912;BME280;6016;41.928;25.556;2023-04-30T09:26:45;98837.16;;;21.11;43.27
11912;BME280;6016;41.928;25.556;2023-04-30T09:29:13;98834.94;;;21.33;44.54
11912;BME280;6016;41.928;25.556;2023-04-30T09:31:41;98783.66;;;21.16;44.28
11912;BME280;6016;41.928;25.556;2023-04-30T09:34:09;98788.28;;;21.08;43.97
11912;BME280;6016;41.928;25.556;2023-04-30T09:36:36;98771.34;;;21.08;43.74
11912;BME280;6016;41.928;25.556;2023-04-30T09:39:06;98828.22;;;21.81;43.64
11912;BME280;6016;41.928;25.556;2023-04-30T09:41:37;98824.66;;;21.87;43.02
11912;BME280;6016;41.928;25.556;2023-04-30T09:44:04;98818.34;;;21.75;41.26
11912;BME280;6016;41.928;25.556;2023-04-30T09:46:32;98816.00;;;21.85;41.90
11912;BME280;6016;41.928;25.556;2023-04-30T09:49:01;98816.84;;;21.79;43.14
11912;BME280;6016;41.928;25.556;2023-04-30T09:51:28;98763.66;;;21.44;44.00
11912;BME280;6016;41.928;25.556;2023-04-30T09:53:55;98771.28;;;21.72;42.96
11912;BME280;6016;41.928;25.556;2023-04-30T09:56:23;98804.28;;;21.98;42.80
11912;BME280;6016;41.928;25.556;2023-04-30T09:58:53;98815.53;;;21.88;42.95
11912;BME280;6016;41.928;25.556;2023-04-30T10:01:22;98801.53;;;21.86;42.95
11912;BME280;6016;41.928;25.556;2023-04-30T10:03:51;98682.97;;;21.20;41.14
11912;BME280;6016;41.928;25.556;2023-04-30T10:06:20;98803.66;;;21.77;42.88
11912;BME280;6016;41.928;25.556;2023-04-30T10:08:48;98719.28;;;21.16;42.13
11912;BME280;6016;41.928;25.556;2023-04-30T10:11:18;98687.13;;;20.90;44.38
11912;BME280;6016;41.928;25.556;2023-04-30T10:13:50;98803.72;;;21.71;40.96
11912;BME280;6016;41.928;25.556;2023-04-30T10:16:25;98800.75;;;21.79;41.14
11912;BME280;6016;41.928;25.556;2023-04-30T10:18:55;98792.94;;;21.96;44.06
11912;BME280;6016;41.928;25.556;2023-04-30T10:21:25;98746.34;;;21.65;41.87
11912;BME280;6016;41.928;25.556;2023-04-30T10:23:53;98728.09;;;21.74;42.52
11912;BME280;6016;41.928;25.556;2023-04-30T10:26:21;98779.59;;;22.27;42.46
11912;BME280;6016;41.928;25.556;2023-04-30T10:28:49;98686.72;;;22.00;42.79
11912;BME280;6016;41.928;25.556;2023-04-30T10:31:19;98727.66;;;22.33;38.90
11912;BME280;6016;41.928;25.556;2023-04-30T10:33:55;98741.13;;;21.96;39.81
11912;BME280;6016;41.928;25.556;2023-04-30T10:36:28;98774.59;;;22.68;40.13
11912;BME280;6016;41.928;25.556;2023-04-30T10:38:57;98765.00;;;22.72;40.83
11912;BME280;6016;41.928;25.556;2023-04-30T10:41:25;98769.56;;;23.02;37.76
11912;BME280;6016;41.928;25.556;2023-04-30T10:43:56;98720.94;;;22.73;38.90
11912;BME280;6016;41.928;25.556;2023-04-30T10:46:24;98641.50;;;22.28;39.50
11912;BME280;6016;41.928;25.556;2023-04-30T10:48:54;98654.69;;;22.48;39.71
11912;BME280;6016;41.928;25.556;2023-04-30T10:51:21;98763.56;;;23.30;37.82
11912;BME280;6016;41.928;25.556;2023-04-30T10:53:50;98755.81;;;23.22;38.20
11912;BME280;6016;41.928;25.556;2023-04-30T10:56:30;98554.97;;;21.95;36.80
11912;BME280;6016;41.928;25.556;2023-04-30T10:58:58;98632.47;;;22.41;36.78
11912;BME280;6016;41.928;25.556;2023-04-30T11:01:27;98750.00;;;23.37;40.85
11912;BME280;6016;41.928;25.556;2023-04-30T11:04:07;98767.66;;;23.33;38.35
11912;BME280;6016;41.928;25.556;2023-04-30T11:06:48;98731.59;;;23.22;38.71
11912;BME280;6016;41.928;25.556;2023-04-30T11:09:15;98754.69;;;23.42;38.90
11912;BME280;6016;41.928;25.556;2023-04-30T11:11:43;98685.81;;;23.10;38.90
11912;BME280;6016;41.928;25.556;2023-04-30T11:14:11;98748.38;;;23.48;38.21
11912;BME280;6016;41.928;25.556;2023-04-30T11:16:38;98722.69;;;23.10;37.36
11912;BME280;6016;41.928;25.556;2023-04-30T11:19:09;98586.63;;;22.35;38.77
11912;BME280;6016;41.928;25.556;2023-04-30T11:21:39;98690.94;;;23.00;38.58
11912;BME280;6016;41.928;25.556;2023-04-30T11:24:06;98738.06;;;23.33;37.66
11912;BME280;6016;41.928;25.556;2023-04-30T11:27:03;98737.38;;;23.38;35.49
11912;BME280;6016;41.928;25.556;2023-04-30T11:29:30;98721.69;;;23.35;36.38
11912;BME280;6016;41.928;25.556;2023-04-30T11:31:59;98739.84;;;23.39;36.79
11912;BME280;6016;41.928;25.556;2023-04-30T11:34:28;98736.41;;;23.44;35.92
11912;BME280;6016;41.928;25.556;2023-04-30T11:36:57;98691.66;;;22.95;35.97
11912;BME280;6016;41.928;25.556;2023-04-30T11:39:25;98660.59;;;22.57;37.10
11912;BME280;6016;41.928;25.556;2023-04-30T11:41:53;98734.75;;;22.76;37.75
11912;BME280;6016;41.928;25.556;2023-04-30T11:44:22;98727.00;;;22.68;38.07
11912;BME280;6016;41.928;25.556;2023-04-30T11:46:49;98610.50;;;21.83;37.94
11912;BME280;6016;41.928;25.556;2023-04-30T11:49:16;98731.25;;;22.76;39.05
11912;BME280;6016;41.928;25.556;2023-04-30T11:51:47;98740.56;;;23.04;36.24
11912;BME280;6016;41.928;25.556;2023-04-30T11:54:14;98563.38;;;22.29;37.50
11912;BME280;6016;41.928;25.556;2023-04-30T11:56:45;98735.03;;;23.53;38.42
11912;BME280;6016;41.928;25.556;2023-04-30T11:59:13;98737.13;;;23.63;35.03
11912;BME280;6016;41.928;25.556;2023-04-30T12:01:40;98723.22;;;23.66;35.87
11912;BME280;6016;41.928;25.556;2023-04-30T12:04:07;98719.78;;;23.83;35.99
11912;BME280;6016;41.928;25.556;2023-04-30T12:06:35;98693.25;;;23.63;34.10
11912;BME280;6016;41.928;25.556;2023-04-30T12:09:03;98649.31;;;23.02;35.52
11912;BME280;6016;41.928;25.556;2023-04-30T12:11:33;98720.03;;;23.45;37.46
11912;BME280;6016;41.928;25.556;2023-04-30T12:14:02;98661.13;;;22.89;35.95
11912;BME280;6016;41.928;25.556;2023-04-30T12:16:39;98715.59;;;23.27;37.61
11912;BME280;6016;41.928;25.556;2023-04-30T12:19:06;98690.38;;;23.22;37.93
11912;BME280;6016;41.928;25.556;2023-04-30T12:21:37;98685.97;;;23.15;39.45
11912;BME280;6016;41.928;25.556;2023-04-30T12:24:06;98712.50;;;23.24;38.93
11912;BME280;6016;41.928;25.556;2023-04-30T12:26:34;98687.81;;;23.03;38.03
11912;BME280;6016;41.928;25.556;2023-04-30T12:29:03;98708.19;;;23.11;37.15
11912;BME280;6016;41.928;25.556;2023-04-30T12:31:31;98705.38;;;23.17;37.98
11912;BME280;6016;41.928;25.556;2023-04-30T12:34:02;98638.50;;;22.67;38.08
11912;BME280;6016;41.928;25.556;2023-04-30T12:36:30;98697.06;;;23.19;40.78
11912;BME280;6016;41.928;25.556;2023-04-30T12:39:02;98695.75;;;22.98;38.75
11912;BME280;6016;41.928;25.556;2023-04-30T12:41:30;98683.22;;;23.03;36.43
11912;BME280;6016;41.928;25.556;2023-04-30T12:44:13;98705.59;;;23.16;39.02
11912;BME280;6016;41.928;25.556;2023-04-30T12:46:40;98669.31;;;22.83;38.12
11912;BME280;6016;41.928;25.556;2023-04-30T12:49:07;98693.41;;;23.01;38.86
11912;BME280;6016;41.928;25.556;2023-04-30T12:51:36;98696.56;;;22.98;38.69
11912;BME280;6016;41.928;25.556;2023-04-30T12:54:04;98702.06;;;23.03;38.49
11912;BME280;6016;41.928;25.556;2023-04-30T12:56:33;98590.63;;;22.33;37.48
11912;BME280;6016;41.928;25.556;2023-04-30T12:59:00;98676.28;;;22.72;37.35
11912;BME280;6016;41.928;25.556;2023-04-30T13:01:26;98501.66;;;21.80;37.25
11912;BME280;6016;41.928;25.556;2023-04-30T13:03:53;98685.81;;;23.10;38.62
11912;BME280;6016;41.928;25.556;2023-04-30T13:06:23;98705.34;;;23.05;39.61